sensor_id;sensor_type;location;lat;lon;timestamp;temperature;humidity
18317;DHT22;9284;52.298;21.164;2023-06-05T00:00:53;7.60;1.00
18317;DHT22;9284;52.298;21.164;2023-06-05T00:03:21;7.60;1.00
18317;DHT22;9284;52.298;21.164;2023-06-05T00:05:52;7.50;1.00
18317;DHT22;9284;52.298;21.164;2023-06-05T00:08:20;7.40;43.20
18317;DHT22;9284;52.298;21.164;2023-06-05T00:10:48;7.40;5.50
18317;DHT22;9284;52.298;21.164;2023-06-05T00:13:17;7.40;96.50
18317;DHT22;9284;52.298;21.164;2023-06-05T00:15:45;7.40;99.90
18317;DHT22;9284;52.298;21.164;2023-06-05T00:18:15;7.30;99.90
18317;DHT22;9284;52.298;21.164;2023-06-05T00:20:44;7.30;99.90
18317;DHT22;9284;52.298;21.164;2023-06-05T00:23:13;7.30;99.90
18317;DHT22;9284;52.298;21.164;2023-06-05T00:25:41;7.10;99.90
18317;DHT22;9284;52.298;21.164;2023-06-05T00:28:10;7.10;99.90
18317;DHT22;9284;52.298;21.164;2023-06-05T00:30:39;7.00;99.90
18317;DHT22;9284;52.298;21.164;2023-06-05T00:33:07;6.90;99.90
18317;DHT22;9284;52.298;21.164;2023-06-05T00:35:38;6.90;1.00
18317;DHT22;9284;52.298;21.164;2023-06-05T00:38:06;7.00;1.00
18317;DHT22;9284;52.298;21.164;2023-06-05T00:40:34;6.90;1.00
18317;DHT22;9284;52.298;21.164;2023-06-05T00:43:03;7.00;1.00
18317;DHT22;9284;52.298;21.164;2023-06-05T00:45:34;6.90;1.00
18317;DHT22;9284;52.298;21.164;2023-06-05T00:48:03;6.90;1.00
18317;DHT22;9284;52.298;21.164;2023-06-05T00:50:32;6.80;1.00
18317;DHT22;9284;52.298;21.164;2023-06-05T00:53:06;6.80;1.00
18317;DHT22;9284;52.298;21.164;2023-06-05T00:55:35;6.80;1.00
18317;DHT22;9284;52.298;21.164;2023-06-05T00:58:05;6.80;1.00
18317;DHT22;9284;52.298;21.164;2023-06-05T01:00:34;6.70;1.00
18317;DHT22;9284;52.298;21.164;2023-06-05T01:03:03;6.70;1.00
18317;DHT22;9284;52.298;21.164;2023-06-05T01:05:32;6.70;1.00
18317;DHT22;9284;52.298;21.164;2023-06-05T01:08:00;6.60;1.00
18317;DHT22;9284;52.298;21.164;2023-06-05T01:10:32;6.60;1.00
18317;DHT22;9284;52.298;21.164;2023-06-05T01:13:05;6.60;20.40
18317;DHT22;9284;52.298;21.164;2023-06-05T01:15:35;6.50;99.90
18317;DHT22;9284;52.298;21.164;2023-06-05T01:18:04;6.50;99.90
18317;DHT22;9284;52.298;21.164;2023-06-05T01:20:34;6.40;99.90
18317;DHT22;9284;52.298;21.164;2023-06-05T01:23:06;6.40;99.90
18317;DHT22;9284;52.298;21.164;2023-06-05T01:25:35;6.60;99.90
18317;DHT22;9284;52.298;21.164;2023-06-05T01:28:08;6.40;99.90
18317;DHT22;9284;52.298;21.164;2023-06-05T01:30:42;6.30;99.90
18317;DHT22;9284;52.298;21.164;2023-06-05T01:33:17;6.30;99.90
18317;DHT22;9284;52.298;21.164;2023-06-05T01:35:52;6.30;1.00
18317;DHT22;9284;52.298;21.164;2023-06-05T01:38:27;6.30;1.00
18317;DHT22;9284;52.298;21.164;2023-06-05T01:40:58;6.30;1.00
18317;DHT22;9284;52.298;21.164;2023-06-05T01:43:28;6.20;1.00
18317;DHT22;9284;52.298;21.164;2023-06-05T01:45:57;6.20;1.00
18317;DHT22;9284;52.298;21.164;2023-06-05T01:48:27;6.10;1.00
18317;DHT22;9284;52.298;21.164;2023-06-05T01:50:58;6.10;1.00
18317;DHT22;9284;52.298;21.164;2023-06-05T01:53:30;6.10;9.50
18317;DHT22;9284;52.298;21.164;2023-06-05T01:56:01;6.10;1.00
18317;DHT22;9284;52.298;21.164;2023-06-05T01:58:31;6.10;1.00
18317;DHT22;9284;52.298;21.164;2023-06-05T02:01:03;6.10;12.50
18317;DHT22;9284;52.298;21.164;2023-06-05T02:03:33;6.00;96.40
18317;DHT22;9284;52.298;21.164;2023-06-05T02:06:02;6.00;99.90
18317;DHT22;9284;52.298;21.164;2023-06-05T02:08:34;6.00;99.90
18317;DHT22;9284;52.298;21.164;2023-06-05T02:11:07;6.00;99.90
18317;DHT22;9284;52.298;21.164;2023-06-05T02:13:40;5.90;21.00
18317;DHT22;9284;52.298;21.164;2023-06-05T02:16:11;5.70;99.90
18317;DHT22;9284;52.298;21.164;2023-06-05T02:18:42;5.60;99.90
18317;DHT22;9284;52.298;21.164;2023-06-05T02:21:15;5.60;1.00
18317;DHT22;9284;52.298;21.164;2023-06-05T02:23:45;5.60;1.00
18317;DHT22;9284;52.298;21.164;2023-06-05T02:26:16;5.60;1.00
18317;DHT22;9284;52.298;21.164;2023-06-05T02:28:45;5.60;99.90
18317;DHT22;9284;52.298;21.164;2023-06-05T02:31:14;5.60;99.90
18317;DHT22;9284;52.298;21.164;2023-06-05T02:33:43;5.60;99.90
18317;DHT22;9284;52.298;21.164;2023-06-05T02:36:14;5.60;99.90
18317;DHT22;9284;52.298;21.164;2023-06-05T02:38:46;5.60;40.70
18317;DHT22;9284;52.298;21.164;2023-06-05T02:41:19;5.60;1.00
18317;DHT22;9284;52.298;21.164;2023-06-05T02:43:48;5.60;1.00
18317;DHT22;9284;52.298;21.164;2023-06-05T02:46:17;5.60;99.90
18317;DHT22;9284;52.298;21.164;2023-06-05T02:48:46;5.60;54.90
18317;DHT22;9284;52.298;21.164;2023-06-05T02:51:17;5.60;28.80
18317;DHT22;9284;52.298;21.164;2023-06-05T02:53:48;5.70;90.80
18317;DHT22;9284;52.298;21.164;2023-06-05T02:56:18;5.70;1.00
18317;DHT22;9284;52.298;21.164;2023-06-05T02:58:49;5.70;1.00
18317;DHT22;9284;52.298;21.164;2023-06-05T03:01:18;5.70;1.00
18317;DHT22;9284;52.298;21.164;2023-06-05T03:03:48;5.70;1.00
18317;DHT22;9284;52.298;21.164;2023-06-05T03:06:22;5.90;1.00
18317;DHT22;9284;52.298;21.164;2023-06-05T03:08:57;5.90;1.00
18317;DHT22;9284;52.298;21.164;2023-06-05T03:11:26;6.00;1.00
18317;DHT22;9284;52.298;21.164;2023-06-05T03:13:55;5.90;99.90
18317;DHT22;9284;52.298;21.164;2023-06-05T03:16:26;6.00;99.90
18317;DHT22;9284;52.298;21.164;2023-06-05T03:19:02;6.00;99.90
18317;DHT22;9284;52.298;21.164;2023-06-05T03:21:30;6.10;99.90
18317;DHT22;9284;52.298;21.164;2023-06-05T03:24:01;6.20;99.90
18317;DHT22;9284;52.298;21.164;2023-06-05T03:26:29;6.10;99.90
18317;DHT22;9284;52.298;21.164;2023-06-05T03:28:59;6.10;99.90
18317;DHT22;9284;52.298;21.164;2023-06-05T03:31:29;6.20;99.90
18317;DHT22;9284;52.298;21.164;2023-06-05T03:34:00;6.40;1.00
18317;DHT22;9284;52.298;21.164;2023-06-05T03:36:33;6.40;1.00
18317;DHT22;9284;52.298;21.164;2023-06-05T03:39:09;6.60;1.00
18317;DHT22;9284;52.298;21.164;2023-06-05T03:41:42;6.80;99.90
18317;DHT22;9284;52.298;21.164;2023-06-05T03:44:10;7.00;99.90
18317;DHT22;9284;52.298;21.164;2023-06-05T03:46:39;7.10;81.80
18317;DHT22;9284;52.298;21.164;2023-06-05T03:49:08;7.30;1.00
18317;DHT22;9284;52.298;21.164;2023-06-05T03:51:38;7.40;1.00
18317;DHT22;9284;52.298;21.164;2023-06-05T03:54:09;7.40;1.00
18317;DHT22;9284;52.298;21.164;2023-06-05T03:56:40;7.40;1.00
18317;DHT22;9284;52.298;21.164;2023-06-05T03:59:17;7.60;1.00
18317;DHT22;9284;52.298;21.164;2023-06-05T04:01:51;7.70;1.00
18317;DHT22;9284;52.298;21.164;2023-06-05T04:04:20;7.80;1.00
18317;DHT22;9284;52.298;21.164;2023-06-05T04:06:53;7.80;1.00
18317;DHT22;9284;52.298;21.164;2023-06-05T04:09:28;8.00;1.00
18317;DHT22;9284;52.298;21.164;2023-06-05T04:11:56;8.10;99.90
18317;DHT22;9284;52.298;21.164;2023-06-05T04:14:27;8.20;99.90
18317;DHT22;9284;52.298;21.164;2023-06-05T04:16:56;8.40;99.90
18317;DHT22;9284;52.298;21.164;2023-06-05T04:19:27;8.60;99.90
18317;DHT22;9284;52.298;21.164;2023-06-05T04:21:56;8.70;99.90
18317;DHT22;9284;52.298;21.164;2023-06-05T04:24:27;8.80;99.90
18317;DHT22;9284;52.298;21.164;2023-06-05T04:26:59;8.90;99.90
18317;DHT22;9284;52.298;21.164;2023-06-05T04:29:29;9.00;79.40
18317;DHT22;9284;52.298;21.164;2023-06-05T04:31:59;9.10;60.80
18317;DHT22;9284;52.298;21.164;2023-06-05T04:34:28;9.10;68.90
18317;DHT22;9284;52.298;21.164;2023-06-05T04:36:56;9.30;65.60
18317;DHT22;9284;52.298;21.164;2023-06-05T04:39:26;9.50;87.80
18317;DHT22;9284;52.298;21.164;2023-06-05T04:41:55;9.70;70.50
18317;DHT22;9284;52.298;21.164;2023-06-05T04:44:34;10.00;55.60
18317;DHT22;9284;52.298;21.164;2023-06-05T04:47:05;10.30;1.00
18317;DHT22;9284;52.298;21.164;2023-06-05T04:49:38;10.50;1.00
18317;DHT22;9284;52.298;21.164;2023-06-05T04:52:09;10.60;1.00
18317;DHT22;9284;52.298;21.164;2023-06-05T04:54:40;10.70;99.90
18317;DHT22;9284;52.298;21.164;2023-06-05T04:57:09;10.80;99.90
18317;DHT22;9284;52.298;21.164;2023-06-05T04:59:40;10.90;99.90
18317;DHT22;9284;52.298;21.164;2023-06-05T05:02:12;11.00;99.90
18317;DHT22;9284;52.298;21.164;2023-06-05T05:04:43;11.00;99.90
18317;DHT22;9284;52.298;21.164;2023-06-05T05:07:13;11.10;99.90
18317;DHT22;9284;52.298;21.164;2023-06-05T05:09:45;11.20;99.90
18317;DHT22;9284;52.298;21.164;2023-06-05T05:12:15;11.20;99.90
18317;DHT22;9284;52.298;21.164;2023-06-05T05:14:45;11.30;99.90
18317;DHT22;9284;52.298;21.164;2023-06-05T05:17:13;11.40;99.90
18317;DHT22;9284;52.298;21.164;2023-06-05T05:19:48;11.60;99.90
18317;DHT22;9284;52.298;21.164;2023-06-05T05:22:18;11.70;99.90
18317;DHT22;9284;52.298;21.164;2023-06-05T05:24:50;11.80;99.90
18317;DHT22;9284;52.298;21.164;2023-06-05T05:27:19;12.00;99.90
18317;DHT22;9284;52.298;21.164;2023-06-05T05:29:48;12.10;99.90
18317;DHT22;9284;52.298;21.164;2023-06-05T05:32:18;12.30;99.90
18317;DHT22;9284;52.298;21.164;2023-06-05T05:34:47;12.50;99.90
18317;DHT22;9284;52.298;21.164;2023-06-05T05:37:18;12.80;15.10
18317;DHT22;9284;52.298;21.164;2023-06-05T05:39:49;13.10;1.00
18317;DHT22;9284;52.298;21.164;2023-06-05T05:42:18;13.40;1.00
18317;DHT22;9284;52.298;21.164;2023-06-05T05:44:48;13.60;1.00
18317;DHT22;9284;52.298;21.164;2023-06-05T05:47:18;13.70;1.00
18317;DHT22;9284;52.298;21.164;2023-06-05T05:49:47;14.00;1.00
18317;DHT22;9284;52.298;21.164;2023-06-05T05:52:15;14.30;1.00
18317;DHT22;9284;52.298;21.164;2023-06-05T05:54:48;14.60;1.00
18317;DHT22;9284;52.298;21.164;2023-06-05T05:57:17;14.90;1.00
18317;DHT22;9284;52.298;21.164;2023-06-05T05:59:45;15.10;1.00
18317;DHT22;9284;52.298;21.164;2023-06-05T06:02:14;15.30;1.00
18317;DHT22;9284;52.298;21.164;2023-06-05T06:04:43;15.40;1.00
18317;DHT22;9284;52.298;21.164;2023-06-05T06:07:13;15.60;1.00
18317;DHT22;9284;52.298;21.164;2023-06-05T06:09:42;15.80;1.00
18317;DHT22;9284;52.298;21.164;2023-06-05T06:12:13;16.20;1.00
18317;DHT22;9284;52.298;21.164;2023-06-05T06:14:41;16.70;1.00
18317;DHT22;9284;52.298;21.164;2023-06-05T06:17:09;17.50;1.00
18317;DHT22;9284;52.298;21.164;2023-06-05T06:19:38;18.50;1.00
18317;DHT22;9284;52.298;21.164;2023-06-05T06:22:07;19.40;1.00
18317;DHT22;9284;52.298;21.164;2023-06-05T06:24:41;20.40;1.00
18317;DHT22;9284;52.298;21.164;2023-06-05T06:27:16;20.90;1.00
18317;DHT22;9284;52.298;21.164;2023-06-05T06:30:02;21.60;1.00
18317;DHT22;9284;52.298;21.164;2023-06-05T06:32:31;22.40;1.00
18317;DHT22;9284;52.298;21.164;2023-06-05T06:34:59;22.90;1.00
18317;DHT22;9284;52.298;21.164;2023-06-05T06:37:30;23.80;1.00
18317;DHT22;9284;52.298;21.164;2023-06-05T06:39:58;24.40;1.00
18317;DHT22;9284;52.298;21.164;2023-06-05T06:42:28;24.40;1.00
18317;DHT22;9284;52.298;21.164;2023-06-05T06:45:12;24.50;1.00
18317;DHT22;9284;52.298;21.164;2023-06-05T06:47:41;25.60;1.00
18317;DHT22;9284;52.298;21.164;2023-06-05T06:50:25;26.00;1.00
18317;DHT22;9284;52.298;21.164;2023-06-05T06:52:54;26.40;1.00
18317;DHT22;9284;52.298;21.164;2023-06-05T06:55:22;26.90;1.00
18317;DHT22;9284;52.298;21.164;2023-06-05T06:57:52;26.70;1.00
18317;DHT22;9284;52.298;21.164;2023-06-05T07:00:20;26.70;1.00
18317;DHT22;9284;52.298;21.164;2023-06-05T07:02:50;26.30;1.00
18317;DHT22;9284;52.298;21.164;2023-06-05T07:05:19;26.70;1.00
18317;DHT22;9284;52.298;21.164;2023-06-05T07:07:47;27.40;1.00
18317;DHT22;9284;52.298;21.164;2023-06-05T07:10:16;27.30;1.00
18317;DHT22;9284;52.298;21.164;2023-06-05T07:12:44;26.90;1.00
18317;DHT22;9284;52.298;21.164;2023-06-05T07:15:14;27.60;1.00
18317;DHT22;9284;52.298;21.164;2023-06-05T07:17:42;27.80;1.00
18317;DHT22;9284;52.298;21.164;2023-06-05T07:20:11;28.00;1.00
18317;DHT22;9284;52.298;21.164;2023-06-05T07:22:42;28.30;1.00
18317;DHT22;9284;52.298;21.164;2023-06-05T07:25:11;28.70;1.00
18317;DHT22;9284;52.298;21.164;2023-06-05T07:27:43;28.50;1.00
18317;DHT22;9284;52.298;21.164;2023-06-05T07:30:14;28.30;1.00
18317;DHT22;9284;52.298;21.164;2023-06-05T07:32:43;28.20;1.00
18317;DHT22;9284;52.298;21.164;2023-06-05T07:35:12;27.90;1.00
18317;DHT22;9284;52.298;21.164;2023-06-05T07:37:43;27.80;1.00
18317;DHT22;9284;52.298;21.164;2023-06-05T07:40:11;28.30;1.00
18317;DHT22;9284;52.298;21.164;2023-06-05T07:42:40;28.60;1.00
18317;DHT22;9284;52.298;21.164;2023-06-05T07:45:16;28.20;1.00
18317;DHT22;9284;52.298;21.164;2023-06-05T07:47:47;27.80;1.00
18317;DHT22;9284;52.298;21.164;2023-06-05T07:50:15;27.50;1.00
18317;DHT22;9284;52.298;21.164;2023-06-05T07:52:44;27.30;1.00
18317;DHT22;9284;52.298;21.164;2023-06-05T07:55:12;27.80;1.00
18317;DHT22;9284;52.298;21.164;2023-06-05T07:57:41;27.70;1.00
18317;DHT22;9284;52.298;21.164;2023-06-05T08:00:10;27.90;1.00
18317;DHT22;9284;52.298;21.164;2023-06-05T08:02:42;28.20;1.00
18317;DHT22;9284;52.298;21.164;2023-06-05T08:05:13;28.20;1.00
18317;DHT22;9284;52.298;21.164;2023-06-05T08:07:44;28.00;1.00
18317;DHT22;9284;52.298;21.164;2023-06-05T08:10:13;28.60;1.00
18317;DHT22;9284;52.298;21.164;2023-06-05T08:12:41;28.80;1.00
18317;DHT22;9284;52.298;21.164;2023-06-05T08:15:12;28.50;1.00
18317;DHT22;9284;52.298;21.164;2023-06-05T08:17:47;28.90;1.00
18317;DHT22;9284;52.298;21.164;2023-06-05T08:20:19;29.30;1.00
18317;DHT22;9284;52.298;21.164;2023-06-05T08:22:48;29.70;1.00
18317;DHT22;9284;52.298;21.164;2023-06-05T08:25:16;29.60;1.00
18317;DHT22;9284;52.298;21.164;2023-06-05T08:27:59;29.50;1.00
18317;DHT22;9284;52.298;21.164;2023-06-05T08:30:30;29.50;1.00
18317;DHT22;9284;52.298;21.164;2023-06-05T08:33:00;29.40;1.00
18317;DHT22;9284;52.298;21.164;2023-06-05T08:35:29;29.10;1.00
18317;DHT22;9284;52.298;21.164;2023-06-05T08:38:02;29.60;1.00
18317;DHT22;9284;52.298;21.164;2023-06-05T08:40:33;29.50;1.00
18317;DHT22;9284;52.298;21.164;2023-06-05T08:43:05;29.10;1.00
18317;DHT22;9284;52.298;21.164;2023-06-05T08:45:35;29.00;1.00
18317;DHT22;9284;52.298;21.164;2023-06-05T08:48:10;28.90;1.00
18317;DHT22;9284;52.298;21.164;2023-06-05T08:50:41;28.90;1.00
18317;DHT22;9284;52.298;21.164;2023-06-05T08:53:12;28.90;1.00
18317;DHT22;9284;52.298;21.164;2023-06-05T08:55:47;29.10;1.00
18317;DHT22;9284;52.298;21.164;2023-06-05T08:58:20;28.90;1.00
18317;DHT22;9284;52.298;21.164;2023-06-05T09:00:50;29.20;1.00
18317;DHT22;9284;52.298;21.164;2023-06-05T09:03:20;29.30;1.00
18317;DHT22;9284;52.298;21.164;2023-06-05T09:05:49;29.20;1.00
18317;DHT22;9284;52.298;21.164;2023-06-05T09:08:27;29.30;1.00
18317;DHT22;9284;52.298;21.164;2023-06-05T09:11:25;28.70;1.00
18317;DHT22;9284;52.298;21.164;2023-06-05T09:13:55;28.90;1.00
18317;DHT22;9284;52.298;21.164;2023-06-05T09:16:33;29.00;1.00
18317;DHT22;9284;52.298;21.164;2023-06-05T09:19:04;28.50;1.00
18317;DHT22;9284;52.298;21.164;2023-06-05T09:21:33;28.40;1.00
18317;DHT22;9284;52.298;21.164;2023-06-05T09:24:12;28.30;1.00
18317;DHT22;9284;52.298;21.164;2023-06-05T09:26:55;27.90;1.00
18317;DHT22;9284;52.298;21.164;2023-06-05T09:29:26;28.10;1.00
18317;DHT22;9284;52.298;21.164;2023-06-05T09:31:56;28.10;1.00
18317;DHT22;9284;52.298;21.164;2023-06-05T09:34:28;28.60;1.00
18317;DHT22;9284;52.298;21.164;2023-06-05T09:36:58;28.90;1.00
18317;DHT22;9284;52.298;21.164;2023-06-05T09:39:32;28.80;1.00
18317;DHT22;9284;52.298;21.164;2023-06-05T09:42:00;28.50;1.00
18317;DHT22;9284;52.298;21.164;2023-06-05T09:44:30;28.20;1.00
18317;DHT22;9284;52.298;21.164;2023-06-05T09:47:03;27.90;1.00
18317;DHT22;9284;52.298;21.164;2023-06-05T09:49:46;26.50;1.00
18317;DHT22;9284;52.298;21.164;2023-06-05T09:52:15;26.40;1.00
18317;DHT22;9284;52.298;21.164;2023-06-05T09:54:45;25.80;1.00
18317;DHT22;9284;52.298;21.164;2023-06-05T09:57:14;25.10;1.00
18317;DHT22;9284;52.298;21.164;2023-06-05T09:59:48;25.40;1.00
18317;DHT22;9284;52.298;21.164;2023-06-05T10:02:22;25.30;1.00
18317;DHT22;9284;52.298;21.164;2023-06-05T10:04:57;25.00;1.00
18317;DHT22;9284;52.298;21.164;2023-06-05T10:07:27;25.30;1.00
18317;DHT22;9284;52.298;21.164;2023-06-05T10:09:57;25.90;1.00
18317;DHT22;9284;52.298;21.164;2023-06-05T10:12:26;26.00;1.00
18317;DHT22;9284;52.298;21.164;2023-06-05T10:14:55;26.30;1.00
18317;DHT22;9284;52.298;21.164;2023-06-05T10:17:24;26.10;1.00
18317;DHT22;9284;52.298;21.164;2023-06-05T10:19:55;26.10;1.00
18317;DHT22;9284;52.298;21.164;2023-06-05T10:22:25;26.60;1.00
18317;DHT22;9284;52.298;21.164;2023-06-05T10:24:58;26.60;1.00
18317;DHT22;9284;52.298;21.164;2023-06-05T10:27:47;27.00;1.00
18317;DHT22;9284;52.298;21.164;2023-06-05T10:30:56;27.20;1.00
18317;DHT22;9284;52.298;21.164;2023-06-05T10:33:45;27.30;1.00
18317;DHT22;9284;52.298;21.164;2023-06-05T10:36:26;27.60;1.00
18317;DHT22;9284;52.298;21.164;2023-06-05T10:39:08;27.60;1.00
18317;DHT22;9284;52.298;21.164;2023-06-05T10:41:37;26.80;1.00
18317;DHT22;9284;52.298;21.164;2023-06-05T10:44:05;26.70;1.00
18317;DHT22;9284;52.298;21.164;2023-06-05T10:46:35;26.80;1.00
18317;DHT22;9284;52.298;21.164;2023-06-05T10:49:08;27.10;1.00
18317;DHT22;9284;52.298;21.164;2023-06-05T10:51:40;27.30;1.00
18317;DHT22;9284;52.298;21.164;2023-06-05T10:54:11;27.10;1.00
18317;DHT22;9284;52.298;21.164;2023-06-05T10:56:59;26.60;1.00
18317;DHT22;9284;52.298;21.164;2023-06-05T10:59:29;26.90;1.00
18317;DHT22;9284;52.298;21.164;2023-06-05T11:02:23;26.70;1.00
18317;DHT22;9284;52.298;21.164;2023-06-05T11:05:09;27.00;1.00
18317;DHT22;9284;52.298;21.164;2023-06-05T11:07:40;26.40;1.00
18317;DHT22;9284;52.298;21.164;2023-06-05T11:10:11;26.30;1.00
18317;DHT22;9284;52.298;21.164;2023-06-05T11:13:02;26.40;1.00
18317;DHT22;9284;52.298;21.164;2023-06-05T11:15:41;26.60;1.00
18317;DHT22;9284;52.298;21.164;2023-06-05T11:18:29;26.70;1.00
18317;DHT22;9284;52.298;21.164;2023-06-05T11:20:59;26.30;1.00
18317;DHT22;9284;52.298;21.164;2023-06-05T11:23:29;26.50;1.00
18317;DHT22;9284;52.298;21.164;2023-06-05T11:26:38;26.20;1.00
18317;DHT22;9284;52.298;21.164;2023-06-05T11:29:15;26.20;1.00
18317;DHT22;9284;52.298;21.164;2023-06-05T11:31:44;26.20;1.00
18317;DHT22;9284;52.298;21.164;2023-06-05T11:34:13;25.80;1.00
18317;DHT22;9284;52.298;21.164;2023-06-05T11:36:42;25.80;1.00
18317;DHT22;9284;52.298;21.164;2023-06-05T11:39:13;25.60;1.00
18317;DHT22;9284;52.298;21.164;2023-06-05T11:41:48;25.70;1.00
18317;DHT22;9284;52.298;21.164;2023-06-05T11:44:30;25.60;1.00
18317;DHT22;9284;52.298;21.164;2023-06-05T11:47:22;25.50;1.00
18317;DHT22;9284;52.298;21.164;2023-06-05T11:49:53;25.70;1.00
18317;DHT22;9284;52.298;21.164;2023-06-05T11:52:24;25.60;1.00
18317;DHT22;9284;52.298;21.164;2023-06-05T11:55:14;25.50;1.00
18317;DHT22;9284;52.298;21.164;2023-06-05T11:57:46;25.50;1.00
18317;DHT22;9284;52.298;21.164;2023-06-05T12:00:23;25.00;1.00
18317;DHT22;9284;52.298;21.164;2023-06-05T12:02:55;25.00;1.00
18317;DHT22;9284;52.298;21.164;2023-06-05T12:05:25;25.10;1.00
18317;DHT22;9284;52.298;21.164;2023-06-05T12:07:54;25.00;1.00
18317;DHT22;9284;52.298;21.164;2023-06-05T12:10:34;25.10;1.00
18317;DHT22;9284;52.298;21.164;2023-06-05T12:13:03;25.20;1.00
18317;DHT22;9284;52.298;21.164;2023-06-05T12:15:32;25.30;1.00
18317;DHT22;9284;52.298;21.164;2023-06-05T12:18:05;24.70;1.00
18317;DHT22;9284;52.298;21.164;2023-06-05T12:20:39;25.00;1.00
18317;DHT22;9284;52.298;21.164;2023-06-05T12:23:18;25.10;1.00
18317;DHT22;9284;52.298;21.164;2023-06-05T12:25:57;25.30;1.00
18317;DHT22;9284;52.298;21.164;2023-06-05T12:28:28;25.10;1.00
18317;DHT22;9284;52.298;21.164;2023-06-05T12:30:57;25.30;1.00
18317;DHT22;9284;52.298;21.164;2023-06-05T12:33:26;25.20;1.00
18317;DHT22;9284;52.298;21.164;2023-06-05T12:36:05;25.10;1.00
18317;DHT22;9284;52.298;21.164;2023-06-05T12:38:37;25.00;1.00
18317;DHT22;9284;52.298;21.164;2023-06-05T12:41:07;25.10;1.00
18317;DHT22;9284;52.298;21.164;2023-06-05T12:43:35;25.00;1.00
18317;DHT22;9284;52.298;21.164;2023-06-05T12:46:05;25.00;1.00
18317;DHT22;9284;52.298;21.164;2023-06-05T12:48:37;24.80;1.00
18317;DHT22;9284;52.298;21.164;2023-06-05T12:51:08;24.90;1.00
18317;DHT22;9284;52.298;21.164;2023-06-05T12:53:37;24.80;1.00
18317;DHT22;9284;52.298;21.164;2023-06-05T12:56:08;24.80;1.00
18317;DHT22;9284;52.298;21.164;2023-06-05T12:58:42;24.70;1.00
18317;DHT22;9284;52.298;21.164;2023-06-05T13:01:11;24.90;1.00
18317;DHT22;9284;52.298;21.164;2023-06-05T13:03:42;24.80;1.00
18317;DHT22;9284;52.298;21.164;2023-06-05T13:06:12;25.00;1.00
18317;DHT22;9284;52.298;21.164;2023-06-05T13:08:40;24.80;1.00
18317;DHT22;9284;52.298;21.164;2023-06-05T13:11:13;24.80;1.00
18317;DHT22;9284;52.298;21.164;2023-06-05T13:13:42;25.00;1.00
18317;DHT22;9284;52.298;21.164;2023-06-05T13:16:13;25.00;1.00
18317;DHT22;9284;52.298;21.164;2023-06-05T13:18:41;24.80;1.00
18317;DHT22;9284;52.298;21.164;2023-06-05T13:21:11;24.90;1.00
18317;DHT22;9284;52.298;21.164;2023-06-05T13:23:39;24.90;1.00
18317;DHT22;9284;52.298;21.164;2023-06-05T13:26:08;24.80;1.00
18317;DHT22;9284;52.298;21.164;2023-06-05T13:28:46;24.80;1.00
18317;DHT22;9284;52.298;21.164;2023-06-05T13:31:16;24.40;1.00
18317;DHT22;9284;52.298;21.164;2023-06-05T13:33:46;24.20;1.00
18317;DHT22;9284;52.298;21.164;2023-06-05T13:36:17;23.90;1.00
18317;DHT22;9284;52.298;21.164;2023-06-05T13:38:52;24.00;1.00
18317;DHT22;9284;52.298;21.164;2023-06-05T13:41:21;24.20;1.00
18317;DHT22;9284;52.298;21.164;2023-06-05T13:43:53;24.50;1.00
18317;DHT22;9284;52.298;21.164;2023-06-05T13:46:23;24.60;1.00
18317;DHT22;9284;52.298;21.164;2023-06-05T13:48:55;24.60;1.00
18317;DHT22;9284;52.298;21.164;2023-06-05T13:51:29;24.80;1.00
18317;DHT22;9284;52.298;21.164;2023-06-05T13:53:59;24.90;1.00
18317;DHT22;9284;52.298;21.164;2023-06-05T13:56:28;24.80;1.00
18317;DHT22;9284;52.298;21.164;2023-06-05T13:59:00;24.70;1.00
18317;DHT22;9284;52.298;21.164;2023-06-05T14:01:29;24.70;1.00
18317;DHT22;9284;52.298;21.164;2023-06-05T14:03:57;24.80;1.00
18317;DHT22;9284;52.298;21.164;2023-06-05T14:06:29;24.70;1.00
18317;DHT22;9284;52.298;21.164;2023-06-05T14:09:09;24.60;1.00
18317;DHT22;9284;52.298;21.164;2023-06-05T14:11:41;24.70;1.00
18317;DHT22;9284;52.298;21.164;2023-06-05T14:14:30;24.60;1.00
18317;DHT22;9284;52.298;21.164;2023-06-05T14:17:06;24.80;1.00
18317;DHT22;9284;52.298;21.164;2023-06-05T14:19:39;24.80;1.00
18317;DHT22;9284;52.298;21.164;2023-06-05T14:22:16;24.80;1.00
18317;DHT22;9284;52.298;21.164;2023-06-05T14:24:48;24.90;1.00
18317;DHT22;9284;52.298;21.164;2023-06-05T14:27:20;24.90;1.00
18317;DHT22;9284;52.298;21.164;2023-06-05T14:30:03;24.90;1.00
18317;DHT22;9284;52.298;21.164;2023-06-05T14:32:38;25.00;1.00
18317;DHT22;9284;52.298;21.164;2023-06-05T14:35:15;25.00;1.00
18317;DHT22;9284;52.298;21.164;2023-06-05T14:37:52;25.00;1.00
18317;DHT22;9284;52.298;21.164;2023-06-05T14:40:21;24.80;1.00
18317;DHT22;9284;52.298;21.164;2023-06-05T14:43:23;24.50;1.00
18317;DHT22;9284;52.298;21.164;2023-06-05T14:46:42;24.60;1.00
18317;DHT22;9284;52.298;21.164;2023-06-05T14:49:40;24.60;1.00
18317;DHT22;9284;52.298;21.164;2023-06-05T14:52:31;24.40;1.00
18317;DHT22;9284;52.298;21.164;2023-06-05T14:55:02;24.40;1.00
18317;DHT22;9284;52.298;21.164;2023-06-05T14:57:35;24.30;1.00
18317;DHT22;9284;52.298;21.164;2023-06-05T15:00:04;24.20;1.00
18317;DHT22;9284;52.298;21.164;2023-06-05T15:02:36;24.50;1.00
18317;DHT22;9284;52.298;21.164;2023-06-05T15:05:09;24.50;1.00
18317;DHT22;9284;52.298;21.164;2023-06-05T15:07:41;24.60;1.00
18317;DHT22;9284;52.298;21.164;2023-06-05T15:10:12;24.60;1.00
18317;DHT22;9284;52.298;21.164;2023-06-05T15:12:42;24.40;1.00
18317;DHT22;9284;52.298;21.164;2023-06-05T15:15:11;24.40;1.00
18317;DHT22;9284;52.298;21.164;2023-06-05T15:17:49;24.40;1.00
18317;DHT22;9284;52.298;21.164;2023-06-05T15:20:23;24.30;1.00
18317;DHT22;9284;52.298;21.164;2023-06-05T15:22:52;24.20;1.00
18317;DHT22;9284;52.298;21.164;2023-06-05T15:25:26;24.30;1.00
18317;DHT22;9284;52.298;21.164;2023-06-05T15:27:57;24.20;1.00
18317;DHT22;9284;52.298;21.164;2023-06-05T15:30:26;24.30;1.00
18317;DHT22;9284;52.298;21.164;2023-06-05T15:32:56;24.30;1.00
18317;DHT22;9284;52.298;21.164;2023-06-05T15:35:25;24.20;1.00
18317;DHT22;9284;52.298;21.164;2023-06-05T15:37:54;24.10;1.00
18317;DHT22;9284;52.298;21.164;2023-06-05T15:40:23;24.10;1.00
18317;DHT22;9284;52.298;21.164;2023-06-05T15:43:04;24.00;1.00
18317;DHT22;9284;52.298;21.164;2023-06-05T15:45:34;24.00;1.00
18317;DHT22;9284;52.298;21.164;2023-06-05T15:48:04;24.00;1.00
18317;DHT22;9284;52.298;21.164;2023-06-05T15:50:33;24.00;1.00
18317;DHT22;9284;52.298;21.164;2023-06-05T15:53:02;23.90;1.00
18317;DHT22;9284;52.298;21.164;2023-06-05T15:55:31;23.90;1.00
18317;DHT22;9284;52.298;21.164;2023-06-05T15:58:04;23.80;1.00
18317;DHT22;9284;52.298;21.164;2023-06-05T16:00:33;23.80;1.00
18317;DHT22;9284;52.298;21.164;2023-06-05T16:03:03;23.80;1.00
18317;DHT22;9284;52.298;21.164;2023-06-05T16:05:37;23.70;1.00
18317;DHT22;9284;52.298;21.164;2023-06-05T16:08:16;23.70;1.00
18317;DHT22;9284;52.298;21.164;2023-06-05T16:10:53;23.70;1.00
18317;DHT22;9284;52.298;21.164;2023-06-05T16:13:24;23.70;1.00
18317;DHT22;9284;52.298;21.164;2023-06-05T16:15:52;23.60;1.00
18317;DHT22;9284;52.298;21.164;2023-06-05T16:18:23;23.60;1.00